sensor_id;sensor_type;location;lat;lon;timestamp;P1;durP1;ratioP1;P2;durP2;ratioP2
66179;SDS011;52986;44.028;20.466;2022-12-18T00:02:09;38.83;;;14.85;;
66179;SDS011;52986;44.028;20.466;2022-12-18T00:04:36;39.42;;;15.45;;
66179;SDS011;52986;44.028;20.466;2022-12-18T00:07:01;39.60;;;15.60;;
66179;SDS011;52986;44.028;20.466;2022-12-18T00:09:28;40.35;;;15.15;;
66179;SDS011;52986;44.028;20.466;2022-12-18T00:11:53;37.97;;;15.13;;
66179;SDS011;52986;44.028;20.466;2022-12-18T00:14:18;38.72;;;15.70;;
66179;SDS011;52986;44.028;20.466;2022-12-18T00:16:44;41.13;;;15.52;;
66179;SDS011;52986;44.028;20.466;2022-12-18T00:19:11;38.65;;;14.88;;
66179;SDS011;52986;44.028;20.466;2022-12-18T00:21:40;43.15;;;15.63;;
66179;SDS011;52986;44.028;20.466;2022-12-18T00:24:06;37.70;;;15.88;;
66179;SDS011;52986;44.028;20.466;2022-12-18T00:26:33;38.85;;;16.75;;
66179;SDS011;52986;44.028;20.466;2022-12-18T00:29:01;40.47;;;16.50;;
66179;SDS011;52986;44.028;20.466;2022-12-18T00:31:28;41.75;;;15.18;;
66179;SDS011;52986;44.028;20.466;2022-12-18T00:33:55;40.42;;;15.50;;
66179;SDS011;52986;44.028;20.466;2022-12-18T00:36:25;43.03;;;15.50;;
66179;SDS011;52986;44.028;20.466;2022-12-18T00:38:53;39.65;;;16.13;;
66179;SDS011;52986;44.028;20.466;2022-12-18T00:41:19;39.22;;;16.00;;
66179;SDS011;52986;44.028;20.466;2022-12-18T00:44:04;41.33;;;15.23;;
66179;SDS011;52986;44.028;20.466;2022-12-18T00:46:30;47.00;;;17.55;;
66179;SDS011;52986;44.028;20.466;2022-12-18T00:48:56;41.13;;;14.43;;
66179;SDS011;52986;44.028;20.466;2022-12-18T00:51:22;46.72;;;16.02;;
66179;SDS011;52986;44.028;20.466;2022-12-18T00:53:48;44.92;;;16.65;;
66179;SDS011;52986;44.028;20.466;2022-12-18T00:56:13;46.97;;;16.10;;
66179;SDS011;52986;44.028;20.466;2022-12-18T00:58:38;43.80;;;15.63;;
66179;SDS011;52986;44.028;20.466;2022-12-18T01:01:04;44.95;;;15.93;;
66179;SDS011;52986;44.028;20.466;2022-12-18T01:03:30;43.30;;;15.70;;
66179;SDS011;52986;44.028;20.466;2022-12-18T01:05:56;37.95;;;14.60;;
66179;SDS011;52986;44.028;20.466;2022-12-18T01:08:22;40.30;;;15.10;;
66179;SDS011;52986;44.028;20.466;2022-12-18T01:10:48;41.85;;;15.65;;
66179;SDS011;52986;44.028;20.466;2022-12-18T01:13:13;49.30;;;17.35;;
66179;SDS011;52986;44.028;20.466;2022-12-18T01:15:38;37.10;;;14.30;;
66179;SDS011;52986;44.028;20.466;2022-12-18T01:18:05;35.63;;;14.23;;
66179;SDS011;52986;44.028;20.466;2022-12-18T01:20:31;39.40;;;14.48;;
66179;SDS011;52986;44.028;20.466;2022-12-18T01:22:57;38.08;;;14.73;;
66179;SDS011;52986;44.028;20.466;2022-12-18T01:25:22;39.58;;;15.05;;
66179;SDS011;52986;44.028;20.466;2022-12-18T01:27:47;38.33;;;14.90;;
66179;SDS011;52986;44.028;20.466;2022-12-18T01:30:13;40.97;;;14.70;;
66179;SDS011;52986;44.028;20.466;2022-12-18T01:32:38;36.15;;;14.63;;
66179;SDS011;52986;44.028;20.466;2022-12-18T01:35:04;38.75;;;14.48;;
66179;SDS011;52986;44.028;20.466;2022-12-18T01:37:30;36.38;;;14.90;;
66179;SDS011;52986;44.028;20.466;2022-12-18T01:39:56;38.40;;;15.40;;
66179;SDS011;52986;44.028;20.466;2022-12-18T01:42:21;32.42;;;12.40;;
66179;SDS011;52986;44.028;20.466;2022-12-18T01:52:53;32.20;;;13.23;;
66179;SDS011;52986;44.028;20.466;2022-12-18T01:55:22;35.00;;;12.90;;
66179;SDS011;52986;44.028;20.466;2022-12-18T01:57:51;35.40;;;13.60;;
66179;SDS011;52986;44.028;20.466;2022-12-18T02:00:19;39.75;;;14.77;;
66179;SDS011;52986;44.028;20.466;2022-12-18T02:02:46;36.45;;;13.90;;
66179;SDS011;52986;44.028;20.466;2022-12-18T02:05:12;31.98;;;12.73;;
66179;SDS011;52986;44.028;20.466;2022-12-18T02:10:46;31.27;;;11.93;;
66179;SDS011;52986;44.028;20.466;2022-12-18T02:13:26;32.10;;;12.35;;
66179;SDS011;52986;44.028;20.466;2022-12-18T02:18:51;33.45;;;12.73;;
66179;SDS011;52986;44.028;20.466;2022-12-18T02:21:45;30.85;;;12.23;;
66179;SDS011;52986;44.028;20.466;2022-12-18T02:26:59;32.15;;;12.63;;
66179;SDS011;52986;44.028;20.466;2022-12-18T02:29:33;34.80;;;12.50;;
66179;SDS011;52986;44.028;20.466;2022-12-18T02:32:04;32.22;;;12.07;;
66179;SDS011;52986;44.028;20.466;2022-12-18T02:34:36;34.22;;;12.68;;
66179;SDS011;52986;44.028;20.466;2022-12-18T02:37:04;32.45;;;12.70;;
66179;SDS011;52986;44.028;20.466;2022-12-18T02:39:33;33.45;;;13.20;;
66179;SDS011;52986;44.028;20.466;2022-12-18T02:42:00;32.97;;;12.32;;
66179;SDS011;52986;44.028;20.466;2022-12-18T02:44:32;34.38;;;12.73;;
66179;SDS011;52986;44.028;20.466;2022-12-18T02:46:58;33.40;;;12.82;;
66179;SDS011;52986;44.028;20.466;2022-12-18T02:53:02;33.88;;;12.43;;
66179;SDS011;52986;44.028;20.466;2022-12-18T02:57:54;31.65;;;12.32;;
66179;SDS011;52986;44.028;20.466;2022-12-18T03:00:28;33.25;;;12.57;;
66179;SDS011;52986;44.028;20.466;2022-12-18T03:08:23;30.67;;;11.75;;
66179;SDS011;52986;44.028;20.466;2022-12-18T03:10:53;31.45;;;12.95;;
66179;SDS011;52986;44.028;20.466;2022-12-18T03:13:39;30.50;;;12.27;;
66179;SDS011;52986;44.028;20.466;2022-12-18T03:16:11;33.05;;;11.82;;
66179;SDS011;52986;44.028;20.466;2022-12-18T03:18:47;31.40;;;12.27;;
66179;SDS011;52986;44.028;20.466;2022-12-18T03:21:17;34.30;;;12.60;;
66179;SDS011;52986;44.028;20.466;2022-12-18T03:23:47;32.75;;;12.65;;
66179;SDS011;52986;44.028;20.466;2022-12-18T03:26:19;32.10;;;12.93;;
66179;SDS011;52986;44.028;20.466;2022-12-18T03:28:49;31.98;;;12.40;;
66179;SDS011;52986;44.028;20.466;2022-12-18T03:31:17;32.05;;;12.85;;
66179;SDS011;52986;44.028;20.466;2022-12-18T03:33:57;36.53;;;13.48;;
66179;SDS011;52986;44.028;20.466;2022-12-18T03:36:24;34.47;;;13.20;;
66179;SDS011;52986;44.028;20.466;2022-12-18T03:38:50;34.40;;;13.65;;
66179;SDS011;52986;44.028;20.466;2022-12-18T03:41:38;35.33;;;14.05;;
66179;SDS011;52986;44.028;20.466;2022-12-18T03:44:14;37.90;;;14.23;;
66179;SDS011;52986;44.028;20.466;2022-12-18T03:51:52;36.03;;;13.68;;
66179;SDS011;52986;44.028;20.466;2022-12-18T03:54:22;35.13;;;13.00;;
66179;SDS011;52986;44.028;20.466;2022-12-18T03:56:53;34.72;;;13.30;;
66179;SDS011;52986;44.028;20.466;2022-12-18T03:59:23;33.92;;;13.00;;
66179;SDS011;52986;44.028;20.466;2022-12-18T04:01:51;37.50;;;14.73;;
66179;SDS011;52986;44.028;20.466;2022-12-18T04:04:18;38.78;;;15.02;;
66179;SDS011;52986;44.028;20.466;2022-12-18T04:06:45;37.92;;;13.73;;
66179;SDS011;52986;44.028;20.466;2022-12-18T04:09:13;31.85;;;12.25;;
66179;SDS011;52986;44.028;20.466;2022-12-18T04:11:42;37.90;;;13.43;;
66179;SDS011;52986;44.028;20.466;2022-12-18T04:14:10;38.40;;;14.13;;
66179;SDS011;52986;44.028;20.466;2022-12-18T04:16:35;34.83;;;13.88;;
66179;SDS011;52986;44.028;20.466;2022-12-18T04:19:01;33.97;;;13.00;;
66179;SDS011;52986;44.028;20.466;2022-12-18T04:21:26;32.00;;;12.73;;
66179;SDS011;52986;44.028;20.466;2022-12-18T04:23:52;36.97;;;14.27;;
66179;SDS011;52986;44.028;20.466;2022-12-18T04:26:17;32.50;;;12.55;;
66179;SDS011;52986;44.028;20.466;2022-12-18T04:28:43;35.45;;;13.35;;
66179;SDS011;52986;44.028;20.466;2022-12-18T04:31:08;37.55;;;13.85;;
66179;SDS011;52986;44.028;20.466;2022-12-18T04:33:33;34.90;;;13.32;;
66179;SDS011;52986;44.028;20.466;2022-12-18T04:35:59;35.67;;;13.00;;
66179;SDS011;52986;44.028;20.466;2022-12-18T04:38:24;35.08;;;13.25;;
66179;SDS011;52986;44.028;20.466;2022-12-18T04:40:49;34.00;;;12.30;;
66179;SDS011;52986;44.028;20.466;2022-12-18T04:43:15;35.38;;;13.55;;
66179;SDS011;52986;44.028;20.466;2022-12-18T04:45:40;35.50;;;12.80;;
66179;SDS011;52986;44.028;20.466;2022-12-18T04:48:05;37.00;;;14.00;;
66179;SDS011;52986;44.028;20.466;2022-12-18T04:50:31;38.15;;;13.95;;
66179;SDS011;52986;44.028;20.466;2022-12-18T04:52:56;35.13;;;13.88;;
66179;SDS011;52986;44.028;20.466;2022-12-18T04:55:26;35.92;;;12.90;;
66179;SDS011;52986;44.028;20.466;2022-12-18T04:57:52;36.50;;;13.00;;
66179;SDS011;52986;44.028;20.466;2022-12-18T05:00:17;32.40;;;12.68;;
66179;SDS011;52986;44.028;20.466;2022-12-18T05:02:43;33.22;;;12.50;;
66179;SDS011;52986;44.028;20.466;2022-12-18T05:05:08;33.23;;;12.70;;
66179;SDS011;52986;44.028;20.466;2022-12-18T05:07:34;32.38;;;12.60;;
66179;SDS011;52986;44.028;20.466;2022-12-18T05:10:00;33.65;;;13.23;;
66179;SDS011;52986;44.028;20.466;2022-12-18T05:12:25;33.30;;;13.45;;
66179;SDS011;52986;44.028;20.466;2022-12-18T05:14:50;32.00;;;12.75;;
66179;SDS011;52986;44.028;20.466;2022-12-18T05:17:16;40.08;;;14.02;;
66179;SDS011;52986;44.028;20.466;2022-12-18T05:19:41;36.00;;;14.45;;
66179;SDS011;52986;44.028;20.466;2022-12-18T05:22:07;35.25;;;13.23;;
66179;SDS011;52986;44.028;20.466;2022-12-18T05:24:32;35.83;;;14.10;;
66179;SDS011;52986;44.028;20.466;2022-12-18T05:26:58;36.45;;;14.60;;
66179;SDS011;52986;44.028;20.466;2022-12-18T05:29:23;36.35;;;14.32;;
66179;SDS011;52986;44.028;20.466;2022-12-18T05:31:49;36.80;;;14.48;;
66179;SDS011;52986;44.028;20.466;2022-12-18T05:34:14;33.78;;;12.93;;
66179;SDS011;52986;44.028;20.466;2022-12-18T05:36:39;34.67;;;14.20;;
66179;SDS011;52986;44.028;20.466;2022-12-18T05:39:05;37.67;;;14.13;;
66179;SDS011;52986;44.028;20.466;2022-12-18T05:41:31;32.28;;;12.75;;
66179;SDS011;52986;44.028;20.466;2022-12-18T05:43:56;32.33;;;12.70;;
66179;SDS011;52986;44.028;20.466;2022-12-18T05:46:22;31.58;;;12.40;;
66179;SDS011;52986;44.028;20.466;2022-12-18T05:48:49;32.63;;;13.20;;
66179;SDS011;52986;44.028;20.466;2022-12-18T05:51:16;30.45;;;11.90;;
66179;SDS011;52986;44.028;20.466;2022-12-18T05:53:43;29.88;;;11.25;;
66179;SDS011;52986;44.028;20.466;2022-12-18T05:56:12;28.80;;;11.38;;
66179;SDS011;52986;44.028;20.466;2022-12-18T05:58:39;30.85;;;11.57;;
66179;SDS011;52986;44.028;20.466;2022-12-18T06:01:10;31.15;;;11.65;;
66179;SDS011;52986;44.028;20.466;2022-12-18T06:03:40;31.77;;;12.52;;
66179;SDS011;52986;44.028;20.466;2022-12-18T06:06:38;34.67;;;13.85;;
66179;SDS011;52986;44.028;20.466;2022-12-18T06:08:57;32.28;;;12.35;;
66179;SDS011;52986;44.028;20.466;2022-12-18T06:11:24;28.98;;;11.10;;
66179;SDS011;52986;44.028;20.466;2022-12-18T06:13:54;32.22;;;11.18;;
66179;SDS011;52986;44.028;20.466;2022-12-18T06:16:20;27.67;;;9.95;;
66179;SDS011;52986;44.028;20.466;2022-12-18T06:18:46;28.65;;;10.80;;
66179;SDS011;52986;44.028;20.466;2022-12-18T06:21:11;28.23;;;11.02;;
66179;SDS011;52986;44.028;20.466;2022-12-18T06:23:37;32.92;;;11.95;;
66179;SDS011;52986;44.028;20.466;2022-12-18T06:26:03;31.88;;;12.65;;
66179;SDS011;52986;44.028;20.466;2022-12-18T06:28:33;30.92;;;12.05;;
66179;SDS011;52986;44.028;20.466;2022-12-18T06:30:58;29.42;;;11.38;;
66179;SDS011;52986;44.028;20.466;2022-12-18T06:33:26;32.83;;;11.88;;
66179;SDS011;52986;44.028;20.466;2022-12-18T06:35:53;28.13;;;11.18;;
66179;SDS011;52986;44.028;20.466;2022-12-18T06:38:19;28.65;;;10.98;;
66179;SDS011;52986;44.028;20.466;2022-12-18T06:40:44;32.90;;;12.20;;
66179;SDS011;52986;44.028;20.466;2022-12-18T06:43:09;35.17;;;12.90;;
66179;SDS011;52986;44.028;20.466;2022-12-18T06:45:35;39.45;;;14.13;;
66179;SDS011;52986;44.028;20.466;2022-12-18T06:48:00;32.40;;;12.30;;
66179;SDS011;52986;44.028;20.466;2022-12-18T06:50:26;34.67;;;13.20;;
66179;SDS011;52986;44.028;20.466;2022-12-18T06:52:51;36.40;;;13.63;;
66179;SDS011;52986;44.028;20.466;2022-12-18T06:55:17;36.75;;;13.48;;
66179;SDS011;52986;44.028;20.466;2022-12-18T06:57:42;31.88;;;12.70;;
66179;SDS011;52986;44.028;20.466;2022-12-18T07:00:08;33.28;;;12.82;;
66179;SDS011;52986;44.028;20.466;2022-12-18T07:02:34;33.83;;;13.02;;
66179;SDS011;52986;44.028;20.466;2022-12-18T07:05:00;36.08;;;12.93;;
66179;SDS011;52986;44.028;20.466;2022-12-18T07:07:25;37.65;;;15.07;;
66179;SDS011;52986;44.028;20.466;2022-12-18T07:09:51;41.95;;;14.18;;
66179;SDS011;52986;44.028;20.466;2022-12-18T07:12:16;38.20;;;14.25;;
66179;SDS011;52986;44.028;20.466;2022-12-18T07:14:42;35.28;;;12.82;;
66179;SDS011;52986;44.028;20.466;2022-12-18T07:17:07;38.08;;;14.10;;
66179;SDS011;52986;44.028;20.466;2022-12-18T07:19:33;37.00;;;13.95;;
66179;SDS011;52986;44.028;20.466;2022-12-18T07:21:59;32.88;;;12.70;;
66179;SDS011;52986;44.028;20.466;2022-12-18T07:24:24;39.38;;;14.57;;
66179;SDS011;52986;44.028;20.466;2022-12-18T07:26:49;33.60;;;12.82;;
66179;SDS011;52986;44.028;20.466;2022-12-18T07:29:15;36.50;;;12.95;;
66179;SDS011;52986;44.028;20.466;2022-12-18T07:31:40;36.30;;;14.68;;
66179;SDS011;52986;44.028;20.466;2022-12-18T07:34:09;27.80;;;11.43;;
66179;SDS011;52986;44.028;20.466;2022-12-18T07:36:36;32.08;;;12.00;;
66179;SDS011;52986;44.028;20.466;2022-12-18T07:39:02;35.70;;;12.98;;
66179;SDS011;52986;44.028;20.466;2022-12-18T07:41:27;34.40;;;12.15;;
66179;SDS011;52986;44.028;20.466;2022-12-18T07:43:53;31.98;;;11.75;;
66179;SDS011;52986;44.028;20.466;2022-12-18T07:46:19;34.80;;;13.60;;
66179;SDS011;52986;44.028;20.466;2022-12-18T07:48:44;33.97;;;13.05;;
66179;SDS011;52986;44.028;20.466;2022-12-18T07:51:10;35.13;;;13.32;;
66179;SDS011;52986;44.028;20.466;2022-12-18T07:53:36;33.00;;;12.05;;
66179;SDS011;52986;44.028;20.466;2022-12-18T07:56:03;34.30;;;13.82;;
66179;SDS011;52986;44.028;20.466;2022-12-18T07:58:30;30.33;;;11.73;;
66179;SDS011;52986;44.028;20.466;2022-12-18T08:01:10;33.47;;;13.93;;
66179;SDS011;52986;44.028;20.466;2022-12-18T08:03:37;32.05;;;13.40;;
66179;SDS011;52986;44.028;20.466;2022-12-18T08:06:04;30.38;;;13.70;;
66179;SDS011;52986;44.028;20.466;2022-12-18T08:08:31;28.58;;;11.63;;
66179;SDS011;52986;44.028;20.466;2022-12-18T08:10:57;36.67;;;12.80;;
66179;SDS011;52986;44.028;20.466;2022-12-18T08:13:23;31.75;;;13.18;;
66179;SDS011;52986;44.028;20.466;2022-12-18T08:15:59;32.28;;;12.85;;
66179;SDS011;52986;44.028;20.466;2022-12-18T08:18:27;35.35;;;13.85;;
66179;SDS011;52986;44.028;20.466;2022-12-18T08:20:53;31.98;;;12.20;;
66179;SDS011;52986;44.028;20.466;2022-12-18T08:23:19;32.40;;;13.30;;
66179;SDS011;52986;44.028;20.466;2022-12-18T08:25:45;35.17;;;14.68;;
66179;SDS011;52986;44.028;20.466;2022-12-18T08:28:10;35.97;;;14.00;;
66179;SDS011;52986;44.028;20.466;2022-12-18T08:30:36;33.40;;;13.30;;
66179;SDS011;52986;44.028;20.466;2022-12-18T08:33:02;36.90;;;14.95;;
66179;SDS011;52986;44.028;20.466;2022-12-18T08:35:27;32.97;;;12.98;;
66179;SDS011;52986;44.028;20.466;2022-12-18T08:37:53;34.17;;;14.00;;
66179;SDS011;52986;44.028;20.466;2022-12-18T08:40:18;33.38;;;13.57;;
66179;SDS011;52986;44.028;20.466;2022-12-18T08:42:44;38.58;;;14.50;;
66179;SDS011;52986;44.028;20.466;2022-12-18T08:45:27;37.20;;;15.43;;
66179;SDS011;52986;44.028;20.466;2022-12-18T08:47:53;36.33;;;14.38;;
66179;SDS011;52986;44.028;20.466;2022-12-18T08:50:18;38.30;;;15.60;;
66179;SDS011;52986;44.028;20.466;2022-12-18T08:52:44;42.35;;;17.05;;
66179;SDS011;52986;44.028;20.466;2022-12-18T08:55:10;44.70;;;17.33;;
66179;SDS011;52986;44.028;20.466;2022-12-18T08:57:35;42.45;;;17.58;;
66179;SDS011;52986;44.028;20.466;2022-12-18T09:00:01;45.83;;;16.20;;
66179;SDS011;52986;44.028;20.466;2022-12-18T09:02:27;37.42;;;14.70;;
66179;SDS011;52986;44.028;20.466;2022-12-18T09:04:52;39.30;;;15.17;;
66179;SDS011;52986;44.028;20.466;2022-12-18T09:07:18;42.97;;;16.70;;
66179;SDS011;52986;44.028;20.466;2022-12-18T09:09:43;43.17;;;16.63;;
66179;SDS011;52986;44.028;20.466;2022-12-18T09:12:08;41.75;;;16.63;;
66179;SDS011;52986;44.028;20.466;2022-12-18T09:14:34;40.92;;;15.32;;
66179;SDS011;52986;44.028;20.466;2022-12-18T09:16:59;38.72;;;14.30;;
66179;SDS011;52986;44.028;20.466;2022-12-18T09:19:24;41.43;;;14.63;;
66179;SDS011;52986;44.028;20.466;2022-12-18T09:21:50;37.45;;;15.27;;
66179;SDS011;52986;44.028;20.466;2022-12-18T09:24:15;39.50;;;15.15;;
66179;SDS011;52986;44.028;20.466;2022-12-18T09:26:41;37.00;;;14.75;;
66179;SDS011;52986;44.028;20.466;2022-12-18T09:29:07;36.80;;;14.02;;
66179;SDS011;52986;44.028;20.466;2022-12-18T09:31:32;39.88;;;15.73;;
66179;SDS011;52986;44.028;20.466;2022-12-18T09:34:06;45.58;;;17.30;;
66179;SDS011;52986;44.028;20.466;2022-12-18T09:36:32;36.25;;;14.10;;
66179;SDS011;52986;44.028;20.466;2022-12-18T09:38:57;39.40;;;15.52;;
66179;SDS011;52986;44.028;20.466;2022-12-18T09:44:01;44.25;;;17.35;;
66179;SDS011;52986;44.028;20.466;2022-12-18T09:46:33;36.65;;;14.93;;
66179;SDS011;52986;44.028;20.466;2022-12-18T09:49:11;36.72;;;15.13;;
66179;SDS011;52986;44.028;20.466;2022-12-18T09:51:41;36.28;;;15.20;;
66179;SDS011;52986;44.028;20.466;2022-12-18T09:54:26;36.65;;;15.40;;
66179;SDS011;52986;44.028;20.466;2022-12-18T09:57:14;44.10;;;16.25;;
66179;SDS011;52986;44.028;20.466;2022-12-18T09:59:44;36.95;;;14.85;;
66179;SDS011;52986;44.028;20.466;2022-12-18T10:02:16;37.67;;;15.52;;
66179;SDS011;52986;44.028;20.466;2022-12-18T10:04:44;41.42;;;16.02;;
66179;SDS011;52986;44.028;20.466;2022-12-18T10:07:38;43.30;;;16.25;;
66179;SDS011;52986;44.028;20.466;2022-12-18T10:10:10;41.90;;;16.00;;
66179;SDS011;52986;44.028;20.466;2022-12-18T10:12:47;41.38;;;16.52;;
66179;SDS011;52986;44.028;20.466;2022-12-18T10:15:24;39.17;;;16.70;;
66179;SDS011;52986;44.028;20.466;2022-12-18T10:20:55;45.03;;;17.10;;
66179;SDS011;52986;44.028;20.466;2022-12-18T10:23:28;42.63;;;16.90;;
66179;SDS011;52986;44.028;20.466;2022-12-18T10:26:07;49.45;;;20.30;;
66179;SDS011;52986;44.028;20.466;2022-12-18T10:28:38;45.72;;;17.45;;
66179;SDS011;52986;44.028;20.466;2022-12-18T10:31:19;49.85;;;18.45;;
66179;SDS011;52986;44.028;20.466;2022-12-18T10:33:46;48.17;;;20.02;;
66179;SDS011;52986;44.028;20.466;2022-12-18T10:36:12;44.00;;;17.88;;
66179;SDS011;52986;44.028;20.466;2022-12-18T10:38:38;40.08;;;16.23;;
66179;SDS011;52986;44.028;20.466;2022-12-18T10:43:38;44.47;;;17.80;;
66179;SDS011;52986;44.028;20.466;2022-12-18T10:48:54;39.97;;;15.07;;
66179;SDS011;52986;44.028;20.466;2022-12-18T10:56:47;46.97;;;16.30;;
66179;SDS011;52986;44.028;20.466;2022-12-18T10:59:16;40.40;;;16.17;;
66179;SDS011;52986;44.028;20.466;2022-12-18T11:01:56;39.13;;;15.52;;
66179;SDS011;52986;44.028;20.466;2022-12-18T11:04:30;37.72;;;14.65;;
66179;SDS011;52986;44.028;20.466;2022-12-18T11:06:57;40.33;;;15.82;;
66179;SDS011;52986;44.028;20.466;2022-12-18T11:09:25;38.83;;;16.00;;
66179;SDS011;52986;44.028;20.466;2022-12-18T11:11:55;40.08;;;16.50;;
66179;SDS011;52986;44.028;20.466;2022-12-18T11:16:54;35.97;;;14.88;;
66179;SDS011;52986;44.028;20.466;2022-12-18T11:27:23;42.70;;;16.38;;
66179;SDS011;52986;44.028;20.466;2022-12-18T11:29:49;40.92;;;15.63;;
66179;SDS011;52986;44.028;20.466;2022-12-18T11:35:03;42.00;;;16.05;;
66179;SDS011;52986;44.028;20.466;2022-12-18T11:37:36;39.08;;;14.32;;
66179;SDS011;52986;44.028;20.466;2022-12-18T11:40:10;37.40;;;15.15;;
66179;SDS011;52986;44.028;20.466;2022-12-18T11:42:54;43.63;;;17.42;;
66179;SDS011;52986;44.028;20.466;2022-12-18T11:45:31;39.20;;;16.65;;
66179;SDS011;52986;44.028;20.466;2022-12-18T11:53:25;34.00;;;14.32;;
66179;SDS011;52986;44.028;20.466;2022-12-18T11:56:00;36.67;;;14.65;;
66179;SDS011;52986;44.028;20.466;2022-12-18T11:58:44;36.05;;;13.95;;
66179;SDS011;52986;44.028;20.466;2022-12-18T12:01:15;40.60;;;15.50;;
66179;SDS011;52986;44.028;20.466;2022-12-18T12:14:40;31.67;;;13.82;;
66179;SDS011;52986;44.028;20.466;2022-12-18T12:17:37;28.40;;;12.40;;
66179;SDS011;52986;44.028;20.466;2022-12-18T12:20:20;33.95;;;13.50;;
66179;SDS011;52986;44.028;20.466;2022-12-18T12:25:47;32.92;;;14.48;;
66179;SDS011;52986;44.028;20.466;2022-12-18T12:40:01;29.33;;;12.43;;
66179;SDS011;52986;44.028;20.466;2022-12-18T12:42:31;34.28;;;14.43;;
66179;SDS011;52986;44.028;20.466;2022-12-18T12:45:24;29.40;;;12.55;;
66179;SDS011;52986;44.028;20.466;2022-12-18T12:47:55;34.40;;;14.23;;
66179;SDS011;52986;44.028;20.466;2022-12-18T12:50:24;27.33;;;13.30;;
66179;SDS011;52986;44.028;20.466;2022-12-18T12:52:53;29.15;;;14.38;;
66179;SDS011;52986;44.028;20.466;2022-12-18T12:55:22;38.30;;;16.35;;
66179;SDS011;52986;44.028;20.466;2022-12-18T12:58:36;39.30;;;16.17;;
66179;SDS011;52986;44.028;20.466;2022-12-18T13:05:54;34.22;;;17.30;;
66179;SDS011;52986;44.028;20.466;2022-12-18T13:08:27;33.70;;;15.55;;
66179;SDS011;52986;44.028;20.466;2022-12-18T13:10:54;33.55;;;16.52;;
66179;SDS011;52986;44.028;20.466;2022-12-18T13:16:24;36.42;;;17.00;;
66179;SDS011;52986;44.028;20.466;2022-12-18T13:18:55;35.22;;;16.83;;
66179;SDS011;52986;44.028;20.466;2022-12-18T13:21:30;34.25;;;16.67;;
66179;SDS011;52986;44.028;20.466;2022-12-18T13:24:14;38.88;;;16.40;;
66179;SDS011;52986;44.028;20.466;2022-12-18T13:26:45;32.92;;;13.38;;
66179;SDS011;52986;44.028;20.466;2022-12-18T13:29:10;37.00;;;15.38;;
66179;SDS011;52986;44.028;20.466;2022-12-18T13:34:17;38.45;;;16.58;;
66179;SDS011;52986;44.028;20.466;2022-12-18T13:36:47;34.75;;;15.10;;
66179;SDS011;52986;44.028;20.466;2022-12-18T13:41:39;36.33;;;15.47;;
66179;SDS011;52986;44.028;20.466;2022-12-18T13:46:50;38.90;;;16.55;;
66179;SDS011;52986;44.028;20.466;2022-12-18T13:51:50;40.78;;;15.57;;
66179;SDS011;52986;44.028;20.466;2022-12-18T13:54:18;36.20;;;13.45;;
66179;SDS011;52986;44.028;20.466;2022-12-18T13:56:47;37.00;;;14.10;;
66179;SDS011;52986;44.028;20.466;2022-12-18T14:01:45;33.42;;;13.40;;
66179;SDS011;52986;44.028;20.466;2022-12-18T14:04:20;47.65;;;18.55;;
66179;SDS011;52986;44.028;20.466;2022-12-18T14:06:49;32.72;;;11.80;;
66179;SDS011;52986;44.028;20.466;2022-12-18T14:09:39;36.75;;;13.95;;
66179;SDS011;52986;44.028;20.466;2022-12-18T14:12:05;43.40;;;15.60;;
66179;SDS011;52986;44.028;20.466;2022-12-18T14:14:51;30.67;;;11.98;;
66179;SDS011;52986;44.028;20.466;2022-12-18T14:17:18;30.77;;;12.18;;
66179;SDS011;52986;44.028;20.466;2022-12-18T14:19:44;28.88;;;10.80;;
66179;SDS011;52986;44.028;20.466;2022-12-18T14:22:14;32.97;;;12.07;;
66179;SDS011;52986;44.028;20.466;2022-12-18T14:24:41;29.95;;;11.93;;
66179;SDS011;52986;44.028;20.466;2022-12-18T14:27:41;34.28;;;13.23;;
66179;SDS011;52986;44.028;20.466;2022-12-18T14:30:03;32.42;;;13.05;;
66179;SDS011;52986;44.028;20.466;2022-12-18T14:35:27;36.92;;;13.88;;
66179;SDS011;52986;44.028;20.466;2022-12-18T14:37:52;35.55;;;13.43;;
66179;SDS011;52986;44.028;20.466;2022-12-18T14:40:17;37.15;;;13.77;;
66179;SDS011;52986;44.028;20.466;2022-12-18T14:42:43;35.05;;;12.85;;
66179;SDS011;52986;44.028;20.466;2022-12-18T14:48:07;33.47;;;12.63;;
66179;SDS011;52986;44.028;20.466;2022-12-18T14:50:37;42.08;;;14.68;;
66179;SDS011;52986;44.028;20.466;2022-12-18T14:53:03;44.50;;;18.05;;
66179;SDS011;52986;44.028;20.466;2022-12-18T14:55:29;46.97;;;17.27;;
66179;SDS011;52986;44.028;20.466;2022-12-18T14:57:55;46.40;;;18.60;;
66179;SDS011;52986;44.028;20.466;2022-12-18T15:00:22;40.03;;;16.38;;
66179;SDS011;52986;44.028;20.466;2022-12-18T15:02:53;37.08;;;14.98;;
66179;SDS011;52986;44.028;20.466;2022-12-18T15:05:24;36.75;;;14.88;;
66179;SDS011;52986;44.028;20.466;2022-12-18T15:07:53;42.83;;;16.13;;
66179;SDS011;52986;44.028;20.466;2022-12-18T15:10:23;40.13;;;16.98;;
66179;SDS011;52986;44.028;20.466;2022-12-18T15:18:02;40.85;;;14.30;;
66179;SDS011;52986;44.028;20.466;2022-12-18T15:20:39;46.78;;;15.70;;
66179;SDS011;52986;44.028;20.466;2022-12-18T15:23:12;40.80;;;14.38;;
66179;SDS011;52986;44.028;20.466;2022-12-18T15:31:03;34.38;;;13.35;;
66179;SDS011;52986;44.028;20.466;2022-12-18T15:33:32;35.38;;;13.20;;
66179;SDS011;52986;44.028;20.466;2022-12-18T15:36:02;40.35;;;14.27;;
66179;SDS011;52986;44.028;20.466;2022-12-18T15:38:30;43.28;;;15.63;;
66179;SDS011;52986;44.028;20.466;2022-12-18T15:40:56;40.67;;;15.13;;
66179;SDS011;52986;44.028;20.466;2022-12-18T15:43:22;38.05;;;15.07;;
66179;SDS011;52986;44.028;20.466;2022-12-18T15:46:01;31.58;;;13.93;;
66179;SDS011;52986;44.028;20.466;2022-12-18T15:48:27;31.75;;;12.23;;
66179;SDS011;52986;44.028;20.466;2022-12-18T15:50:53;36.10;;;15.18;;
66179;SDS011;52986;44.028;20.466;2022-12-18T15:53:21;44.50;;;16.13;;
66179;SDS011;52986;44.028;20.466;2022-12-18T15:55:47;40.40;;;16.13;;
66179;SDS011;52986;44.028;20.466;2022-12-18T15:58:32;36.83;;;15.57;;
66179;SDS011;52986;44.028;20.466;2022-12-18T16:00:58;36.80;;;14.32;;
66179;SDS011;52986;44.028;20.466;2022-12-18T16:03:25;35.45;;;13.60;;
66179;SDS011;52986;44.028;20.466;2022-12-18T16:05:50;38.53;;;15.48;;
66179;SDS011;52986;44.028;20.466;2022-12-18T16:08:16;40.97;;;15.57;;
66179;SDS011;52986;44.028;20.466;2022-12-18T16:10:41;43.97;;;16.42;;
66179;SDS011;52986;44.028;20.466;2022-12-18T16:13:09;45.42;;;17.90;;
66179;SDS011;52986;44.028;20.466;2022-12-18T16:15:36;46.38;;;17.63;;
66179;SDS011;52986;44.028;20.466;2022-12-18T16:18:02;50.28;;;20.08;;
66179;SDS011;52986;44.028;20.466;2022-12-18T16:20:27;43.20;;;17.65;;
66179;SDS011;52986;44.028;20.466;2022-12-18T16:22:52;45.03;;;17.40;;
66179;SDS011;52986;44.028;20.466;2022-12-18T16:25:19;46.50;;;18.25;;
66179;SDS011;52986;44.028;20.466;2022-12-18T16:27:49;51.47;;;20.35;;
66179;SDS011;52986;44.028;20.466;2022-12-18T16:30:19;56.65;;;20.38;;